Airfield :
LOGIN :

Register | Disclaimer

   EN    FR    IT 

 










Legend :    VFR   Marginal VFR   IFR   Intensive IFR   Very Intensive IFR
Visi :
Ceiling :
>= 8 km
>= 3000ft
5 to 8 km
1000 to 3000 ft
1500m to 5 km
500 to 1000 ft
800 to 1500m
200 to 500 ft
< 800m
< 200 ft
Symbols :   Thunderstorms  Fog  Heavy snow  Heavy precipitations  Wind > 20 kt
SIGMETs :     Misc.  Thunderstorms  Icing  Turbulence  Mountain Waves  Volcanic Ashes






- Airport Elevation : 80 ft
- IATA code : LPL


EGGP - Liverpool John Lennon

CURRENT METAR :
  • 211320Z 29010KT 9999 6000NW VCSH FEW009 BKN017 14/12 Q0993

EXPIRED METARs :
  • 211250Z 30009KT 9999 VCSH FEW009 SCT035 14/12 Q0993
  • 211220Z 26009G20KT 200V320 9999 VCSH FEW009 SCT019 BKN041 15/13 Q0993
  • 211150Z 22006KT 9999 BKN041 16/14 Q0992
  • 211120Z 20006KT 9999 BKN041 16/14 Q0992
  • 211050Z 19004KT 9999 FEW010 SCT049 15/14 Q0992

TAF TAF EGGP
Valid from the 21 at 12:00 until the 22 at 12:00 UTC


211100Z 2112/2212 19004KT 9999 FEW010 SCT035
BECMG 2112/2115 27010KT
TEMPO 2112/2116 7000 RA BKN012
PROB40
TEMPO 2118/2123 BKN014
PROB40
TEMPO 2123/2212 7000 SHRA
ATIS : +44 151 907 2000 (option 5 or ext 5150)
Met : +44 871 750 5150



MET'MAP, your aeronautical weather chart ! - Copyright ORBIFLY December 2007 - Disclaimer

ORBIFLY MET'MAP TEAM :

Programming & Development : Alexandra Zaïnal
Concept & original design : Baudouin d'Aumeries
Assistance for programming : Marc-Olivier Méhu
Technical & hardware support : Manuel Goepfert

Contact : metmap@orbifly.com




SOURCES & CREDITS :

   NOAA